Time;durP1;ratioP1;P1;durP2;ratioP2;P2;SDS_P1;SDS_P2;PMS_P1;PMS_P2;Temp;Humidity;BMP_temperature;BMP_pressure;BME280_temperature;BME280_humidity;BME280_pressure;Samples;Min_cycle;Max_cycle;Signal;HPM_P1;HPM_P2
2022/03/01 00:00:42;;;;;;;0.10;0.10;;;;;;;;;;4940129;28;20039;-88
2022/03/01 00:03:08;;;;;;;0.10;0.10;;;;;;;;;;4940183;28;20136;-88
2022/03/01 00:05:34;;;;;;;0.20;0.20;;;;;;;;;;4955683;28;20486;-88
2022/03/01 00:08:00;;;;;;;0.20;0.20;;;;;;;;;;4955694;28;20053;-89
2022/03/01 00:10:26;;;;;;;0.20;0.20;;;;;;;;;;4939783;28;20053;-88
2022/03/01 00:12:52;;;;;;;0.10;0.10;;;;;;;;;;4955842;28;20397;-88
2022/03/01 00:15:18;;;;;;;0.10;0.10;;;;;;;;;;4988038;28;20097;-88
2022/03/01 00:17:44;;;;;;;0.10;0.10;;;;;;;;;;4958331;28;20478;-87
2022/03/01 00:20:10;;;;;;;0.10;0.10;;;;;;;;;;4943282;28;20046;-88
2022/03/01 00:22:36;;;;;;;0.10;0.10;;;;;;;;;;4959184;28;20195;-88
2022/03/01 00:25:02;;;;;;;0.10;0.10;;;;;;;;;;4943179;28;20096;-89
2022/03/01 00:27:28;;;;;;;0.20;0.20;;;;;;;;;;4943127;28;20066;-89
2022/03/01 00:29:54;;;;;;;0.10;0.10;;;;;;;;;;4958867;28;20057;-88
2022/03/01 00:32:20;;;;;;;0.00;0.00;;;;;;;;;;4991199;28;20051;-89
2022/03/01 00:34:46;;;;;;;0.20;0.20;;;;;;;;;;4959137;28;20039;-88
2022/03/01 00:37:12;;;;;;;0.10;0.10;;;;;;;;;;4942829;28;20065;-88
2022/03/01 00:39:39;;;;;;;0.10;0.10;;;;;;;;;;4958780;28;20046;-88
2022/03/01 00:42:05;;;;;;;0.88;0.28;;;;;;;;;;4990869;28;20038;-89
2022/03/01 00:44:30;;;;;;;0.30;0.30;;;;;;;;;;4958632;28;20530;-87
2022/03/01 00:46:56;;;;;;;0.20;0.20;;;;;;;;;;4942599;28;20043;-88
2022/03/01 00:49:22;;;;;;;0.08;0.08;;;;;;;;;;4942676;28;20512;-88
2022/03/01 00:51:48;;;;;;;0.10;0.10;;;;;;;;;;4942542;28;20093;-88
2022/03/01 00:54:14;;;;;;;0.10;0.10;;;;;;;;;;4958397;28;20046;-88
2022/03/01 00:56:40;;;;;;;0.10;0.10;;;;;;;;;;4958360;28;20048;-88
2022/03/01 00:59:08;;;;;;;0.10;0.10;;;;;;;;;;4958361;28;20034;-88
2022/03/01 01:01:33;;;;;;;0.10;0.10;;;;;;;;;;4942556;28;20047;-88
2022/03/01 01:03:59;;;;;;;1.17;0.50;;;;;;;;;;4942121;28;20066;-88
2022/03/01 01:06:25;;;;;;;0.10;0.10;;;;;;;;;;4958484;28;20047;-88
2022/03/01 01:08:51;;;;;;;0.22;0.22;;;;;;;;;;4958349;28;20398;-88
2022/03/01 01:11:17;;;;;;;0.10;0.10;;;;;;;;;;4942269;28;20043;-89
2022/03/01 01:13:43;;;;;;;0.10;0.10;;;;;;;;;;4958135;28;20501;-89
2022/03/01 01:16:09;;;;;;;0.10;0.10;;;;;;;;;;4958032;28;20047;-87
2022/03/01 01:18:38;;;;;;;0.10;0.10;;;;;;;;;;4990141;28;20043;-89
2022/03/01 01:21:04;;;;;;;0.10;0.10;;;;;;;;;;4958242;28;20124;-88
2022/03/01 01:23:30;;;;;;;0.15;0.15;;;;;;;;;;4958093;28;20050;-87
2022/03/01 01:25:56;;;;;;;0.10;0.10;;;;;;;;;;4957758;28;20451;-86
2022/03/01 01:28:22;;;;;;;0.10;0.10;;;;;;;;;;4957551;28;20066;-87
2022/03/01 01:30:48;;;;;;;0.10;0.10;;;;;;;;;;4957860;28;20217;-87
2022/03/01 01:33:14;;;;;;;0.10;0.10;;;;;;;;;;4957694;28;20317;-88
2022/03/01 01:35:40;;;;;;;0.10;0.10;;;;;;;;;;4941480;28;20486;-87
2022/03/01 01:38:06;;;;;;;0.10;0.10;;;;;;;;;;4941670;28;20039;-87
2022/03/01 01:40:32;;;;;;;0.10;0.10;;;;;;;;;;4957673;28;20045;-88
2022/03/01 01:42:58;;;;;;;0.10;0.10;;;;;;;;;;4957566;28;20069;-87
2022/03/01 01:45:25;;;;;;;0.08;0.08;;;;;;;;;;4957500;28;20053;-88
2022/03/01 01:47:51;;;;;;;0.35;0.35;;;;;;;;;;4957666;28;20050;-88
2022/03/01 01:50:17;;;;;;;0.32;0.32;;;;;;;;;;4941554;28;20336;-88
2022/03/01 01:52:44;;;;;;;0.10;0.10;;;;;;;;;;4957377;28;20049;-88
2022/03/01 01:55:10;;;;;;;0.10;0.10;;;;;;;;;;4989364;28;20050;-88
2022/03/01 01:57:36;;;;;;;0.10;0.10;;;;;;;;;;4957231;28;20035;-88
2022/03/01 02:00:03;;;;;;;0.10;0.10;;;;;;;;;;4957276;28;20034;-88
2022/03/01 02:02:29;;;;;;;0.10;0.10;;;;;;;;;;4941261;28;20126;-88
2022/03/01 02:04:55;;;;;;;0.10;0.10;;;;;;;;;;4940996;28;20137;-88
2022/03/01 02:07:21;;;;;;;0.10;0.10;;;;;;;;;;4941146;28;20043;-88
2022/03/01 02:09:47;;;;;;;0.10;0.10;;;;;;;;;;4941051;28;20093;-88
2022/03/01 02:12:13;;;;;;;0.30;0.30;;;;;;;;;;4941026;28;20478;-88
2022/03/01 02:14:39;;;;;;;0.00;0.00;;;;;;;;;;4956934;28;20406;-88
2022/03/01 02:17:06;;;;;;;0.10;0.10;;;;;;;;;;4956968;28;20046;-88
2022/03/01 02:19:32;;;;;;;0.10;0.10;;;;;;;;;;4940831;28;20122;-88
2022/03/01 02:21:58;;;;;;;0.10;0.10;;;;;;;;;;4956711;28;20085;-88
2022/03/01 02:24:25;;;;;;;0.10;0.10;;;;;;;;;;4940910;28;20043;-88
2022/03/01 02:27:00;;;;;;;0.10;0.10;;;;;;;;;;4956813;28;20134;-89
2022/03/01 02:29:26;;;;;;;0.40;0.40;;;;;;;;;;4941034;28;20042;-89
2022/03/01 02:31:55;;;;;;;0.10;0.10;;;;;;;;;;4941114;28;20097;-88
2022/03/01 02:34:21;;;;;;;0.10;0.10;;;;;;;;;;4940950;28;20084;-88
2022/03/01 02:36:47;;;;;;;0.10;0.10;;;;;;;;;;4940678;28;20074;-88
2022/03/01 02:39:13;;;;;;;0.10;0.10;;;;;;;;;;4940068;28;20050;-88
2022/03/01 02:41:43;;;;;;;0.10;0.10;;;;;;;;;;4956743;28;20137;-88
2022/03/01 02:44:09;;;;;;;0.22;0.20;;;;;;;;;;4940692;28;20043;-88
2022/03/01 02:46:35;;;;;;;1.08;0.20;;;;;;;;;;4956572;28;20420;-88
2022/03/01 02:49:01;;;;;;;0.10;0.10;;;;;;;;;;4956853;28;20046;-87
2022/03/01 02:51:27;;;;;;;0.10;0.10;;;;;;;;;;4940135;28;20052;-88
2022/03/01 02:53:53;;;;;;;0.10;0.10;;;;;;;;;;4940624;28;20456;-88
2022/03/01 02:56:19;;;;;;;0.10;0.10;;;;;;;;;;4956941;28;20038;-88
2022/03/01 02:58:45;;;;;;;0.30;0.30;;;;;;;;;;4957405;28;20039;-88
2022/03/01 03:01:11;;;;;;;0.10;0.10;;;;;;;;;;4940896;28;20459;-89
2022/03/01 03:03:37;;;;;;;0.10;0.10;;;;;;;;;;4956914;28;20145;-88
2022/03/01 03:06:03;;;;;;;0.10;0.10;;;;;;;;;;4940789;28;20049;-88
2022/03/01 03:08:29;;;;;;;0.10;0.10;;;;;;;;;;4956265;28;20491;-89
2022/03/01 03:10:55;;;;;;;0.10;0.10;;;;;;;;;;4956332;28;20039;-88
2022/03/01 03:13:21;;;;;;;0.45;0.45;;;;;;;;;;4940358;28;20046;-89
2022/03/01 03:15:47;;;;;;;0.10;0.10;;;;;;;;;;4956219;28;20038;-88
2022/03/01 03:18:14;;;;;;;0.10;0.10;;;;;;;;;;4956151;28;20035;-89
2022/03/01 03:20:40;;;;;;;0.10;0.10;;;;;;;;;;4956325;28;20047;-89
2022/03/01 03:23:06;;;;;;;0.32;0.32;;;;;;;;;;4956158;28;20057;-88
2022/03/01 03:25:32;;;;;;;0.43;0.20;;;;;;;;;;4956014;28;20491;-88
2022/03/01 03:27:58;;;;;;;0.10;0.10;;;;;;;;;;4956449;28;20479;-89
2022/03/01 03:30:24;;;;;;;0.10;0.10;;;;;;;;;;4939929;28;20450;-88
2022/03/01 03:32:50;;;;;;;0.10;0.10;;;;;;;;;;4955925;28;20050;-89
2022/03/01 03:35:16;;;;;;;0.35;0.22;;;;;;;;;;4956045;28;20450;-89
2022/03/01 03:37:42;;;;;;;0.10;0.10;;;;;;;;;;4940041;28;20050;-89
2022/03/01 03:40:08;;;;;;;0.10;0.10;;;;;;;;;;4955999;28;20402;-89
2022/03/01 03:42:34;;;;;;;0.10;0.10;;;;;;;;;;4955986;28;20050;-87
2022/03/01 03:45:00;;;;;;;0.10;0.10;;;;;;;;;;4955768;28;20121;-88
2022/03/01 03:47:26;;;;;;;0.10;0.10;;;;;;;;;;4988086;28;20074;-88
2022/03/01 03:49:52;;;;;;;0.10;0.10;;;;;;;;;;4955834;28;20042;-88
2022/03/01 03:52:18;;;;;;;0.00;0.00;;;;;;;;;;4959397;28;20042;-88
2022/03/01 03:54:44;;;;;;;0.10;0.10;;;;;;;;;;4943655;28;20035;-88
2022/03/01 03:57:10;;;;;;;0.10;0.10;;;;;;;;;;4959582;28;20055;-88
2022/03/01 03:59:37;;;;;;;0.20;0.20;;;;;;;;;;4943778;28;20210;-88
2022/03/01 04:02:03;;;;;;;0.10;0.10;;;;;;;;;;4959896;28;20043;-88
2022/03/01 04:04:29;;;;;;;0.10;0.10;;;;;;;;;;4943310;28;20067;-88
2022/03/01 04:06:55;;;;;;;0.10;0.10;;;;;;;;;;4959553;28;20057;-88
2022/03/01 04:09:21;;;;;;;0.10;0.10;;;;;;;;;;4943230;28;20042;-88
2022/03/01 04:11:47;;;;;;;0.00;0.00;;;;;;;;;;4959004;28;20035;-89
2022/03/01 04:14:13;;;;;;;0.30;0.30;;;;;;;;;;4943206;28;20042;-89
2022/03/01 04:16:42;;;;;;;0.10;0.10;;;;;;;;;;4958960;28;20379;-89
2022/03/01 04:19:09;;;;;;;0.00;0.00;;;;;;;;;;4943675;28;20067;-89
2022/03/01 04:21:35;;;;;;;0.10;0.10;;;;;;;;;;4959110;28;20046;-88
2022/03/01 04:24:01;;;;;;;0.10;0.10;;;;;;;;;;4943187;28;20078;-88
2022/03/01 04:26:27;;;;;;;0.10;0.10;;;;;;;;;;4943121;28;20133;-89
2022/03/01 04:28:53;;;;;;;0.10;0.10;;;;;;;;;;4943125;28;20106;-89
2022/03/01 04:31:19;;;;;;;0.00;0.00;;;;;;;;;;4958936;28;20096;-88
2022/03/01 04:33:45;;;;;;;0.10;0.10;;;;;;;;;;4942987;28;20479;-88
2022/03/01 04:36:11;;;;;;;0.10;0.10;;;;;;;;;;4942948;28;20043;-88
2022/03/01 04:38:37;;;;;;;0.10;0.10;;;;;;;;;;4943023;28;20042;-87
2022/03/01 04:41:03;;;;;;;0.20;0.20;;;;;;;;;;4958696;28;20042;-88
2022/03/01 04:43:29;;;;;;;0.00;0.00;;;;;;;;;;4990926;28;20074;-88
2022/03/01 04:45:56;;;;;;;0.00;0.00;;;;;;;;;;4958687;28;20724;-88
2022/03/01 04:48:23;;;;;;;0.10;0.10;;;;;;;;;;4958697;28;20065;-88
2022/03/01 04:50:49;;;;;;;0.10;0.10;;;;;;;;;;4942877;28;20456;-88
2022/03/01 04:53:15;;;;;;;0.10;0.10;;;;;;;;;;4958449;28;20042;-88
2022/03/01 04:55:42;;;;;;;0.20;0.20;;;;;;;;;;4942249;28;20038;-88
2022/03/01 04:58:07;;;;;;;0.10;0.10;;;;;;;;;;4958245;28;20498;-88
2022/03/01 05:00:33;;;;;;;0.10;0.10;;;;;;;;;;4942528;28;20043;-88
2022/03/01 05:03:00;;;;;;;0.00;0.00;;;;;;;;;;4957662;28;20049;-89
2022/03/01 05:05:26;;;;;;;0.10;0.10;;;;;;;;;;4990179;28;20062;-89
2022/03/01 05:07:52;;;;;;;0.00;0.00;;;;;;;;;;4958590;28;20057;-89
2022/03/01 05:10:18;;;;;;;0.03;0.03;;;;;;;;;;4958262;28;20050;-89
2022/03/01 05:12:52;;;;;;;0.22;0.22;;;;;;;;;;4958241;28;20053;-88
2022/03/01 05:15:18;;;;;;;0.10;0.10;;;;;;;;;;4958326;28;20105;-88
2022/03/01 05:17:44;;;;;;;0.13;0.13;;;;;;;;;;4957949;28;20121;-88
2022/03/01 05:20:10;;;;;;;0.03;0.03;;;;;;;;;;4958063;28;20182;-88
2022/03/01 05:22:36;;;;;;;0.10;0.10;;;;;;;;;;4942185;28;20047;-89
2022/03/01 05:25:03;;;;;;;0.05;0.05;;;;;;;;;;4957940;28;20042;-88
2022/03/01 05:27:29;;;;;;;0.10;0.10;;;;;;;;;;4958001;28;20046;-89
2022/03/01 05:29:55;;;;;;;0.00;0.00;;;;;;;;;;4941950;28;20039;-88
2022/03/01 05:32:21;;;;;;;0.10;0.10;;;;;;;;;;4941769;28;20047;-89
2022/03/01 05:34:47;;;;;;;0.10;0.10;;;;;;;;;;4957847;28;20479;-89
2022/03/01 05:37:13;;;;;;;0.05;0.05;;;;;;;;;;4958045;28;20419;-88
2022/03/01 05:39:39;;;;;;;0.30;0.30;;;;;;;;;;4942248;28;20094;-89
2022/03/01 05:42:05;;;;;;;0.10;0.10;;;;;;;;;;4941863;28;20038;-88
2022/03/01 05:44:31;;;;;;;0.10;0.10;;;;;;;;;;4957444;28;20082;-88
2022/03/01 05:46:59;;;;;;;0.10;0.10;;;;;;;;;;4941891;28;20051;-87
2022/03/01 05:49:25;;;;;;;0.17;0.17;;;;;;;;;;4941546;28;20093;-88
2022/03/01 05:51:51;;;;;;;0.10;0.10;;;;;;;;;;4989445;28;20498;-87
2022/03/01 05:54:17;;;;;;;0.10;0.10;;;;;;;;;;4957455;28;20042;-88
2022/03/01 05:56:42;;;;;;;0.10;0.10;;;;;;;;;;4957182;28;20124;-87
2022/03/01 05:59:09;;;;;;;0.10;0.10;;;;;;;;;;4957391;28;20483;-87
2022/03/01 06:01:35;;;;;;;0.10;0.10;;;;;;;;;;4941366;28;20129;-88
2022/03/01 06:04:00;;;;;;;0.45;0.45;;;;;;;;;;4941192;28;20089;-88
2022/03/01 06:06:26;;;;;;;0.10;0.10;;;;;;;;;;4957184;28;20050;-88
2022/03/01 06:08:52;;;;;;;0.05;0.05;;;;;;;;;;4989480;28;20105;-88
2022/03/01 06:11:18;;;;;;;0.10;0.10;;;;;;;;;;4956907;28;20530;-88
2022/03/01 06:13:44;;;;;;;0.10;0.10;;;;;;;;;;4956184;28;20446;-87
2022/03/01 06:16:10;;;;;;;0.10;0.10;;;;;;;;;;4956947;28;20043;-88
2022/03/01 06:18:36;;;;;;;0.10;0.10;;;;;;;;;;4957134;28;20046;-88
2022/03/01 06:21:02;;;;;;;0.10;0.10;;;;;;;;;;4940894;28;20402;-88
2022/03/01 06:23:28;;;;;;;0.00;0.00;;;;;;;;;;4957119;28;20074;-88
2022/03/01 06:25:54;;;;;;;0.10;0.10;;;;;;;;;;4941102;28;20478;-89
2022/03/01 06:28:20;;;;;;;0.10;0.10;;;;;;;;;;4988938;28;20414;-88
2022/03/01 06:30:46;;;;;;;0.10;0.10;;;;;;;;;;4940688;28;20050;-88
2022/03/01 06:33:13;;;;;;;0.85;0.40;;;;;;;;;;4940761;28;20545;-88
2022/03/01 06:35:39;;;;;;;0.43;0.43;;;;;;;;;;4988784;28;20039;-89
2022/03/01 06:38:05;;;;;;;0.08;0.08;;;;;;;;;;4956677;28;20053;-89
2022/03/01 06:40:31;;;;;;;0.30;0.30;;;;;;;;;;4940795;28;20039;-89
2022/03/01 06:42:57;;;;;;;0.10;0.10;;;;;;;;;;4940591;28;20039;-88
2022/03/01 06:45:23;;;;;;;0.10;0.10;;;;;;;;;;4940546;28;20125;-89
2022/03/01 06:47:49;;;;;;;0.10;0.10;;;;;;;;;;4956824;28;20423;-89
2022/03/01 06:50:15;;;;;;;0.10;0.10;;;;;;;;;;4940697;28;20146;-93
2022/03/01 06:52:41;;;;;;;0.10;0.10;;;;;;;;;;4940659;28;20043;-89
2022/03/01 06:55:08;;;;;;;0.10;0.10;;;;;;;;;;4956473;28;20042;-90
2022/03/01 06:57:34;;;;;;;0.10;0.10;;;;;;;;;;4957079;28;20050;-90
2022/03/01 07:00:00;;;;;;;0.10;0.10;;;;;;;;;;4956890;28;20047;-90
2022/03/01 07:02:26;;;;;;;0.10;0.10;;;;;;;;;;4956760;28;20096;-90
2022/03/01 07:04:54;;;;;;;0.10;0.10;;;;;;;;;;4940759;28;20058;-92
2022/03/01 07:07:21;;;;;;;0.00;0.00;;;;;;;;;;4941509;28;20047;-91
2022/03/01 07:09:47;;;;;;;0.00;0.00;;;;;;;;;;4941542;28;20374;-90
2022/03/01 07:12:13;;;;;;;0.10;0.10;;;;;;;;;;4957392;28;20043;-93
2022/03/01 07:14:39;;;;;;;0.57;0.52;;;;;;;;;;4957229;28;20219;-94
2022/03/01 07:17:05;;;;;;;0.10;0.10;;;;;;;;;;4941432;28;20074;-91
2022/03/01 07:19:31;;;;;;;0.10;0.10;;;;;;;;;;4940458;28;20480;-91
2022/03/01 07:21:57;;;;;;;0.20;0.20;;;;;;;;;;4940680;28;20129;-90
2022/03/01 07:24:23;;;;;;;0.10;0.10;;;;;;;;;;4956590;28;20049;-92
2022/03/01 07:26:49;;;;;;;0.70;0.10;;;;;;;;;;4944288;28;20042;-90
2022/03/01 07:29:15;;;;;;;0.10;0.10;;;;;;;;;;4960658;28;20050;-91
2022/03/01 07:31:41;;;;;;;0.10;0.10;;;;;;;;;;4960563;28;20486;-92
2022/03/01 07:34:08;;;;;;;0.10;0.10;;;;;;;;;;4960194;28;20622;-89
2022/03/01 07:36:33;;;;;;;0.10;0.10;;;;;;;;;;4960207;28;20402;-89
2022/03/01 07:38:59;;;;;;;0.10;0.10;;;;;;;;;;4944620;28;20038;-90
2022/03/01 07:41:26;;;;;;;0.10;0.10;;;;;;;;;;4944832;28;20082;-93
2022/03/01 07:43:52;;;;;;;0.10;0.10;;;;;;;;;;4960861;28;20050;-96
2022/03/01 07:46:18;;;;;;;1.75;0.35;;;;;;;;;;4944656;28;20101;-92
2022/03/01 07:48:44;;;;;;;0.10;0.10;;;;;;;;;;4944842;28;20053;-91
2022/03/01 07:51:10;;;;;;;0.10;0.10;;;;;;;;;;4959678;28;20047;-91
2022/03/01 07:53:36;;;;;;;0.13;0.10;;;;;;;;;;4944230;28;20039;-91
2022/03/01 07:56:02;;;;;;;0.40;0.40;;;;;;;;;;4944078;28;20045;-91
2022/03/01 07:58:28;;;;;;;0.10;0.10;;;;;;;;;;4943948;28;20042;-91
2022/03/01 08:00:54;;;;;;;0.20;0.10;;;;;;;;;;4944363;28;20133;-90
2022/03/01 08:03:20;;;;;;;0.10;0.10;;;;;;;;;;4943725;28;20506;-92
2022/03/01 08:05:48;;;;;;;0.10;0.10;;;;;;;;;;4960214;28;20110;-95
2022/03/01 08:08:14;;;;;;;0.35;0.35;;;;;;;;;;4939161;29;20073;-89
2022/03/01 08:10:40;;;;;;;0.00;0.00;;;;;;;;;;4924312;29;20487;-90
2022/03/01 08:13:06;;;;;;;0.30;0.30;;;;;;;;;;4940924;28;20447;-89
2022/03/01 08:15:32;;;;;;;0.00;0.00;;;;;;;;;;4981354;28;20043;-90
2022/03/01 08:17:58;;;;;;;0.10;0.10;;;;;;;;;;4980187;28;20055;-90
2022/03/01 08:20:25;;;;;;;0.68;0.28;;;;;;;;;;4977114;28;20096;-90
2022/03/01 08:22:51;;;;;;;0.05;0.05;;;;;;;;;;4943382;28;20035;-90
2022/03/01 08:25:17;;;;;;;0.10;0.10;;;;;;;;;;4975235;28;20046;-91
2022/03/01 08:27:43;;;;;;;0.32;0.32;;;;;;;;;;4943837;28;20049;-91
2022/03/01 08:30:12;;;;;;;0.10;0.10;;;;;;;;;;4944115;28;20114;-93
2022/03/01 08:32:38;;;;;;;0.10;0.10;;;;;;;;;;4952080;28;20074;-92
2022/03/01 08:35:05;;;;;;;0.00;0.00;;;;;;;;;;4959758;28;20053;-92
2022/03/01 08:37:31;;;;;;;0.10;0.10;;;;;;;;;;4943306;28;20490;-93
2022/03/01 08:39:57;;;;;;;0.00;0.00;;;;;;;;;;4944077;28;20043;-92
2022/03/01 08:42:22;;;;;;;0.00;0.00;;;;;;;;;;4944217;28;20039;-92
2022/03/01 08:44:49;;;;;;;0.10;0.10;;;;;;;;;;4944256;28;20039;-92
2022/03/01 08:47:15;;;;;;;0.10;0.10;;;;;;;;;;4959528;28;20400;-92
2022/03/01 08:49:41;;;;;;;0.15;0.15;;;;;;;;;;4943150;28;20043;-91
2022/03/01 08:52:06;;;;;;;0.10;0.10;;;;;;;;;;4943253;28;20039;-91
2022/03/01 08:54:32;;;;;;;0.00;0.00;;;;;;;;;;4943147;28;20042;-90
2022/03/01 08:56:58;;;;;;;0.00;0.00;;;;;;;;;;4942978;28;20461;-92
2022/03/01 08:59:25;;;;;;;0.00;0.00;;;;;;;;;;4958953;28;20391;-91
2022/03/01 09:01:51;;;;;;;0.10;0.10;;;;;;;;;;4943481;28;20051;-92
2022/03/01 09:04:17;;;;;;;0.15;0.15;;;;;;;;;;4958712;28;20085;-93
2022/03/01 09:06:43;;;;;;;0.10;0.10;;;;;;;;;;4943691;28;20039;-93
2022/03/01 09:09:09;;;;;;;0.00;0.00;;;;;;;;;;4943518;28;20051;-92
2022/03/01 09:11:35;;;;;;;0.20;0.20;;;;;;;;;;4942712;28;20109;-91
2022/03/01 09:14:01;;;;;;;0.10;0.10;;;;;;;;;;4942161;28;20046;-91
2022/03/01 09:16:27;;;;;;;0.08;0.08;;;;;;;;;;4942389;28;20042;-90
2022/03/01 09:18:53;;;;;;;0.10;0.10;;;;;;;;;;4958101;28;20097;-91
2022/03/01 09:21:20;;;;;;;0.00;0.00;;;;;;;;;;4958384;28;20046;-90
2022/03/01 09:23:46;;;;;;;0.10;0.10;;;;;;;;;;4942189;28;20506;-90
2022/03/01 09:26:12;;;;;;;0.10;0.10;;;;;;;;;;4957734;28;20050;-90
2022/03/01 09:28:38;;;;;;;0.10;0.10;;;;;;;;;;4973530;28;20094;-89
2022/03/01 09:31:04;;;;;;;0.00;0.00;;;;;;;;;;4958254;28;20134;-89
2022/03/01 09:33:30;;;;;;;0.17;0.17;;;;;;;;;;4942200;28;20093;-90
2022/03/01 09:35:56;;;;;;;0.10;0.10;;;;;;;;;;4957589;28;20043;-90
2022/03/01 09:38:24;;;;;;;0.25;0.25;;;;;;;;;;4958221;28;20046;-91
2022/03/01 09:40:50;;;;;;;0.10;0.10;;;;;;;;;;4958408;28;20513;-91
2022/03/01 09:43:16;;;;;;;0.25;0.20;;;;;;;;;;4943339;28;20046;-93
2022/03/01 09:45:42;;;;;;;0.10;0.10;;;;;;;;;;4941977;28;20498;-90
2022/03/01 09:48:08;;;;;;;0.08;0.08;;;;;;;;;;4957607;28;20049;-91
2022/03/01 09:50:34;;;;;;;0.20;0.20;;;;;;;;;;4942361;28;20137;-91
2022/03/01 09:53:01;;;;;;;0.10;0.10;;;;;;;;;;4958602;28;20161;-92
2022/03/01 09:55:27;;;;;;;0.15;0.15;;;;;;;;;;4942535;28;20042;-89
2022/03/01 09:57:53;;;;;;;0.10;0.10;;;;;;;;;;4941702;28;20741;-90
2022/03/01 10:00:19;;;;;;;0.10;0.10;;;;;;;;;;4941595;28;20049;-89
2022/03/01 10:02:45;;;;;;;0.10;0.10;;;;;;;;;;4957894;28;20101;-90
2022/03/01 10:05:14;;;;;;;0.17;0.17;;;;;;;;;;4957333;28;20120;-90
2022/03/01 10:07:44;;;;;;;0.47;0.15;;;;;;;;;;4957498;28;20046;-87
2022/03/01 10:10:16;;;;;;;0.10;0.10;;;;;;;;;;4957545;28;20050;-90
2022/03/01 10:12:42;;;;;;;0.10;0.10;;;;;;;;;;4941335;28;20047;-89
2022/03/01 10:15:10;;;;;;;0.10;0.10;;;;;;;;;;4957096;28;20042;-89
2022/03/01 10:17:36;;;;;;;0.10;0.10;;;;;;;;;;4941394;28;20491;-89
2022/03/01 10:20:10;;;;;;;0.10;0.10;;;;;;;;;;4956837;28;20486;-89
2022/03/01 10:22:43;;;;;;;0.10;0.10;;;;;;;;;;4956821;28;20042;-89
2022/03/01 10:25:09;;;;;;;0.10;0.10;;;;;;;;;;4957404;28;20389;-89
2022/03/01 10:27:35;;;;;;;0.10;0.10;;;;;;;;;;4935645;29;20047;-89
2022/03/01 10:30:02;;;;;;;0.10;0.10;;;;;;;;;;4937498;29;20035;-89
2022/03/01 10:32:27;;;;;;;0.10;0.10;;;;;;;;;;4956414;28;20038;-89
2022/03/01 10:35:01;;;;;;;0.00;0.00;;;;;;;;;;4940531;28;20094;-89
2022/03/01 10:37:28;;;;;;;0.10;0.10;;;;;;;;;;4956187;28;20035;-90
2022/03/01 10:40:08;;;;;;;0.10;0.10;;;;;;;;;;4940409;28;20077;-91
2022/03/01 10:42:34;;;;;;;0.00;0.00;;;;;;;;;;4940768;28;20581;-90
2022/03/01 10:45:00;;;;;;;0.10;0.10;;;;;;;;;;4956459;28;20113;-89
2022/03/01 10:47:28;;;;;;;0.10;0.10;;;;;;;;;;4956559;28;20467;-89
2022/03/01 10:50:00;;;;;;;0.00;0.00;;;;;;;;;;4940416;28;20050;-89
2022/03/01 10:52:32;;;;;;;0.10;0.10;;;;;;;;;;4955849;28;20402;-88
2022/03/01 10:54:58;;;;;;;0.10;0.10;;;;;;;;;;4956686;28;20047;-90
2022/03/01 10:57:24;;;;;;;0.10;0.10;;;;;;;;;;4943009;28;20154;-89
2022/03/01 10:59:50;;;;;;;0.10;0.10;;;;;;;;;;4941278;28;20050;-90
2022/03/01 11:02:17;;;;;;;0.20;0.20;;;;;;;;;;4956094;28;20121;-90
2022/03/01 11:04:43;;;;;;;0.10;0.10;;;;;;;;;;4955816;28;20055;-90
2022/03/01 11:07:09;;;;;;;0.10;0.10;;;;;;;;;;4940516;28;20194;-89
2022/03/01 11:09:35;;;;;;;0.10;0.10;;;;;;;;;;4956304;28;20502;-89
2022/03/01 11:12:01;;;;;;;0.10;0.10;;;;;;;;;;4956078;28;20054;-89
2022/03/01 11:14:28;;;;;;;0.20;0.20;;;;;;;;;;4955822;28;20393;-89
2022/03/01 11:17:13;;;;;;;0.10;0.10;;;;;;;;;;4939881;28;20560;-89
2022/03/01 11:19:40;;;;;;;0.10;0.10;;;;;;;;;;4972534;28;20043;-90
2022/03/01 11:22:06;;;;;;;0.10;0.10;;;;;;;;;;4972030;28;20082;-89
2022/03/01 11:24:32;;;;;;;0.10;0.10;;;;;;;;;;4939756;28;20074;-88
2022/03/01 11:27:08;;;;;;;0.10;0.10;;;;;;;;;;4972089;28;20105;-88
2022/03/01 11:29:40;;;;;;;0.10;0.10;;;;;;;;;;4955871;28;20176;-90
2022/03/01 11:32:13;;;;;;;0.10;0.10;;;;;;;;;;4956185;28;20423;-91
2022/03/01 11:34:39;;;;;;;0.10;0.10;;;;;;;;;;4940350;28;20074;-90
2022/03/01 11:37:11;;;;;;;0.10;0.10;;;;;;;;;;4939981;28;20525;-90
2022/03/01 11:39:37;;;;;;;0.10;0.10;;;;;;;;;;4956071;28;20039;-89
2022/03/01 11:42:06;;;;;;;0.10;0.10;;;;;;;;;;4940276;28;20054;-90
2022/03/01 11:44:35;;;;;;;0.10;0.10;;;;;;;;;;4972130;28;20042;-90
2022/03/01 11:47:03;;;;;;;0.10;0.10;;;;;;;;;;4955915;28;20266;-89
2022/03/01 11:49:33;;;;;;;0.13;0.13;;;;;;;;;;4939940;28;20060;-89
2022/03/01 11:52:00;;;;;;;0.20;0.20;;;;;;;;;;4955806;28;20043;-88
2022/03/01 11:54:29;;;;;;;0.10;0.10;;;;;;;;;;4955606;28;20042;-89
2022/03/01 11:56:56;;;;;;;0.10;0.10;;;;;;;;;;4956023;28;20125;-89
2022/03/01 11:59:23;;;;;;;0.10;0.10;;;;;;;;;;4955968;28;20039;-89
2022/03/01 12:01:49;;;;;;;0.13;0.13;;;;;;;;;;4939870;28;20045;-89
2022/03/01 12:04:19;;;;;;;0.10;0.10;;;;;;;;;;4955264;28;20182;-88
2022/03/01 12:06:45;;;;;;;0.20;0.20;;;;;;;;;;4955497;28;20047;-89
2022/03/01 12:09:12;;;;;;;0.10;0.10;;;;;;;;;;4955528;28;20050;-92
2022/03/01 12:11:39;;;;;;;0.10;0.10;;;;;;;;;;4956945;28;20046;-91
2022/03/01 12:14:06;;;;;;;0.17;0.17;;;;;;;;;;4944084;28;20090;-90
2022/03/01 12:16:33;;;;;;;0.10;0.10;;;;;;;;;;4943085;28;20049;-90
2022/03/01 12:19:18;;;;;;;0.10;0.10;;;;;;;;;;4959759;28;20042;-92
2022/03/01 12:21:51;;;;;;;0.10;0.10;;;;;;;;;;4943225;28;20146;-92
2022/03/01 12:24:18;;;;;;;0.00;0.00;;;;;;;;;;4959680;28;20054;-93
2022/03/01 12:26:50;;;;;;;0.10;0.10;;;;;;;;;;4944146;28;20418;-94
2022/03/01 12:29:16;;;;;;;0.13;0.13;;;;;;;;;;4944043;28;20506;-93
2022/03/01 12:31:42;;;;;;;0.10;0.10;;;;;;;;;;4943930;28;20070;-94
2022/03/01 12:34:09;;;;;;;0.15;0.13;;;;;;;;;;4944096;28;20114;-93
2022/03/01 12:36:36;;;;;;;0.35;0.35;;;;;;;;;;4943963;28;20039;-94
2022/03/01 12:39:09;;;;;;;0.30;0.30;;;;;;;;;;4943817;28;20477;-94
2022/03/01 12:41:39;;;;;;;0.10;0.10;;;;;;;;;;4959210;28;20050;-92
2022/03/01 12:44:07;;;;;;;0.10;0.10;;;;;;;;;;4943865;28;20047;-94
2022/03/01 12:46:34;;;;;;;0.10;0.10;;;;;;;;;;4957328;28;20179;-96
2022/03/01 12:49:01;;;;;;;0.20;0.10;;;;;;;;;;4945219;28;20051;-96
2022/03/01 12:51:29;;;;;;;0.10;0.10;;;;;;;;;;4947455;28;20115;-96
2022/03/01 12:54:05;;;;;;;0.10;0.10;;;;;;;;;;4964703;28;20035;-95
2022/03/01 13:01:45;;;;;;;0.10;0.10;;;;;;;;;;5378426;23;20057;-93
2022/03/01 13:04:11;;;;;;;0.10;0.10;;;;;;;;;;4946121;28;20039;-92
2022/03/01 13:06:38;;;;;;;0.10;0.10;;;;;;;;;;4961031;28;20494;-92
2022/03/01 13:09:04;;;;;;;0.20;0.20;;;;;;;;;;4978730;28;20043;-92
2022/03/01 13:11:30;;;;;;;0.15;0.15;;;;;;;;;;4961830;28;20089;-91
2022/03/01 13:13:59;;;;;;;0.10;0.10;;;;;;;;;;4978470;28;20042;-92
2022/03/01 13:16:33;;;;;;;0.10;0.10;;;;;;;;;;4962258;28;20041;-92
2022/03/01 13:19:06;;;;;;;0.13;0.13;;;;;;;;;;4962563;28;20046;-92
2022/03/01 13:21:33;;;;;;;0.10;0.10;;;;;;;;;;4978287;28;20046;-92
2022/03/01 13:24:00;;;;;;;0.10;0.10;;;;;;;;;;4961700;28;20124;-92
2022/03/01 13:26:26;;;;;;;0.10;0.10;;;;;;;;;;4961894;28;20034;-92
2022/03/01 13:28:52;;;;;;;0.32;0.32;;;;;;;;;;4961731;28;20047;-92
2022/03/01 13:31:23;;;;;;;0.95;0.95;;;;;;;;;;4977340;28;20042;-92
2022/03/01 13:33:56;;;;;;;1.65;1.00;;;;;;;;;;4978348;28;20034;-92
2022/03/01 13:36:22;;;;;;;0.10;0.10;;;;;;;;;;4961593;28;20042;-91
2022/03/01 13:38:58;;;;;;;0.10;0.10;;;;;;;;;;4977362;28;20129;-91
2022/03/01 13:41:27;;;;;;;0.20;0.20;;;;;;;;;;4977661;28;20049;-91
2022/03/01 13:43:53;;;;;;;0.10;0.10;;;;;;;;;;4961964;28;20042;-93
2022/03/01 13:46:19;;;;;;;0.10;0.10;;;;;;;;;;4961760;28;20096;-96
2022/03/01 13:48:45;;;;;;;0.10;0.10;;;;;;;;;;4961941;28;20045;-93
2022/03/01 13:51:11;;;;;;;0.10;0.10;;;;;;;;;;4978623;28;20038;-94
2022/03/01 13:53:38;;;;;;;0.30;0.30;;;;;;;;;;4961421;28;20431;-93
2022/03/01 13:56:04;;;;;;;0.10;0.10;;;;;;;;;;4960984;28;20039;-94
2022/03/01 13:58:31;;;;;;;0.10;0.10;;;;;;;;;;4961765;28;20411;-93
2022/03/01 14:00:58;;;;;;;0.30;0.30;;;;;;;;;;4961497;28;20058;-93
2022/03/01 14:03:25;;;;;;;0.20;0.20;;;;;;;;;;4993944;28;20046;-93
2022/03/01 14:05:53;;;;;;;0.10;0.10;;;;;;;;;;4961160;28;20038;-93
2022/03/01 14:08:19;;;;;;;0.20;0.20;;;;;;;;;;4977413;28;20110;-93
2022/03/01 14:10:50;;;;;;;0.10;0.10;;;;;;;;;;4977659;28;20085;-93
2022/03/01 14:13:19;;;;;;;0.10;0.10;;;;;;;;;;4961733;28;20040;-94
2022/03/01 14:15:50;;;;;;;0.20;0.20;;;;;;;;;;4960962;28;20050;-93
2022/03/01 14:18:16;;;;;;;0.75;0.22;;;;;;;;;;4961729;28;20045;-93
2022/03/01 14:20:42;;;;;;;0.10;0.10;;;;;;;;;;4961358;28;20045;-94
2022/03/01 14:23:08;;;;;;;0.10;0.10;;;;;;;;;;4961454;28;20165;-91
2022/03/01 14:25:34;;;;;;;0.20;0.20;;;;;;;;;;4960649;28;20041;-92
2022/03/01 14:28:00;;;;;;;0.30;0.30;;;;;;;;;;4977142;28;20046;-92
2022/03/01 14:30:26;;;;;;;0.10;0.10;;;;;;;;;;4976941;28;20046;-92
2022/03/01 14:32:54;;;;;;;0.17;0.17;;;;;;;;;;4960917;28;20129;-93
2022/03/01 14:35:20;;;;;;;0.10;0.10;;;;;;;;;;4960005;28;20105;-89
2022/03/01 14:37:46;;;;;;;0.20;0.20;;;;;;;;;;4975865;28;20121;-90
2022/03/01 14:40:12;;;;;;;0.10;0.10;;;;;;;;;;4976168;28;20098;-91
2022/03/01 14:42:38;;;;;;;0.10;0.10;;;;;;;;;;4976144;28;20049;-91
2022/03/01 14:45:04;;;;;;;0.10;0.10;;;;;;;;;;4975924;28;20038;-90